Terminal Aerodrome Forecast
Issued by NWS Topeka, KS

Home | Current Version | Previous Version | Graphics & Text | Print | Product List | Glossary On
Versions: 1 2 3 4 5 6 7 8 9 10 11 12 13 14 15 16 17 18
000
FTUS43 KTOP 312300
TAFTOP
TAF
KTOP 312328Z 0100/0124 13008KT 3SM -RA BR OVC008
     FM010400 13009KT 1 1/2SM -RA BR OVC006
     FM011200 31013G26KT 4SM -SN BR OVC009
     FM011800 32020G30KT 5SM -SN BR OVC009=

USA.gov is the U.S. government's official web portal to all federal, state and local government web resources and services.